Time;durP1;ratioP1;P1;durP2;ratioP2;P2;SDS_P1;SDS_P2;PMS_P1;PMS_P2;Temp;Humidity;BMP_temperature;BMP_pressure;BME280_temperature;BME280_humidity;BME280_pressure;Samples;Min_cycle;Max_cycle;Signal;HPM_P1;HPM_P2
2023/03/21 00:00:38;;;;;;;27.38;15.15;;;11.00;99.90;;;;;;5031333;28;20029;-72
2023/03/21 00:03:04;;;;;;;26.52;16.15;;;11.10;99.90;;;;;;5031308;28;20464;-72
2023/03/21 00:05:30;;;;;;;29.05;16.98;;;11.10;99.90;;;;;;5030691;28;20479;-72
2023/03/21 00:07:56;;;;;;;27.15;15.70;;;11.20;99.90;;;;;;5030634;28;20041;-72
2023/03/21 00:10:21;;;;;;;30.92;17.35;;;11.10;99.90;;;;;;5030553;28;20405;-72
2023/03/21 00:12:49;;;;;;;25.50;15.10;;;11.20;99.90;;;;;;5029642;28;20026;-72
2023/03/21 00:15:17;;;;;;;29.67;16.98;;;11.20;99.90;;;;;;5029502;28;20022;-72
2023/03/21 00:17:43;;;;;;;29.05;15.27;;;11.30;99.90;;;;;;5031323;28;20078;-73
2023/03/21 00:20:16;;;;;;;30.77;16.23;;;11.30;99.90;;;;;;5030618;28;20025;-73
2023/03/21 00:22:42;;;;;;;28.73;17.23;;;11.20;99.90;;;;;;5030676;28;20037;-73
2023/03/21 00:25:09;;;;;;;24.83;15.73;;;11.30;99.90;;;;;;5030781;28;20373;-73
2023/03/21 00:27:35;;;;;;;30.83;15.40;;;11.30;99.90;;;;;;5031081;28;20030;-73
2023/03/21 00:30:02;;;;;;;26.13;15.90;;;11.30;99.90;;;;;;5035348;28;20104;-74
2023/03/21 00:32:28;;;;;;;30.77;15.30;;;11.30;99.90;;;;;;5034657;28;20508;-72
2023/03/21 00:34:53;;;;;;;23.80;15.50;;;11.20;99.90;;;;;;5034470;28;20164;-71
2023/03/21 00:37:19;;;;;;;30.83;15.93;;;11.20;99.90;;;;;;5034842;28;20099;-72
2023/03/21 00:39:48;;;;;;;31.25;15.82;;;11.20;99.90;;;;;;5034758;28;20030;-73
2023/03/21 00:42:17;;;;;;;26.95;16.20;;;11.10;99.90;;;;;;5034653;28;20489;-71
2023/03/21 00:44:43;;;;;;;29.67;15.73;;;11.20;99.90;;;;;;5033864;28;20150;-73
2023/03/21 00:47:11;;;;;;;26.40;15.80;;;11.20;99.90;;;;;;5034848;28;20037;-73
2023/03/21 00:49:37;;;;;;;25.50;15.35;;;11.20;99.90;;;;;;5034587;28;20033;-73
2023/03/21 00:52:08;;;;;;;26.23;16.05;;;11.30;99.90;;;;;;5034380;28;20034;-73
2023/03/21 00:54:35;;;;;;;30.58;15.38;;;11.20;99.90;;;;;;5034322;28;20104;-74
2023/03/21 00:57:01;;;;;;;31.80;15.75;;;11.20;99.90;;;;;;5034961;28;20039;-74
2023/03/21 00:59:27;;;;;;;26.95;15.45;;;11.20;99.90;;;;;;5034326;28;20034;-73
2023/03/21 01:01:53;;;;;;;23.65;14.40;;;11.20;99.90;;;;;;5034282;28;20033;-73
2023/03/21 01:04:20;;;;;;;22.83;14.23;;;11.30;99.90;;;;;;5034192;28;20099;-74
2023/03/21 01:06:46;;;;;;;30.17;15.90;;;11.20;99.90;;;;;;5034205;28;20039;-72
2023/03/21 01:09:18;;;;;;;24.27;14.15;;;11.20;99.90;;;;;;5032901;28;20025;-72
2023/03/21 01:11:45;;;;;;;26.30;15.02;;;11.20;99.90;;;;;;5033419;28;20394;-70
2023/03/21 01:14:12;;;;;;;27.30;15.32;;;11.20;99.90;;;;;;5034019;28;20428;-72
2023/03/21 01:16:38;;;;;;;31.25;15.30;;;11.20;99.90;;;;;;5033900;28;20044;-71
2023/03/21 01:19:05;;;;;;;30.50;16.45;;;11.10;99.90;;;;;;5033946;28;20025;-71
2023/03/21 01:21:32;;;;;;;24.92;14.80;;;11.10;99.90;;;;;;5033939;28;20044;-71
2023/03/21 01:23:58;;;;;;;34.20;16.17;;;11.10;99.90;;;;;;5034467;28;20041;-72
2023/03/21 01:26:24;;;;;;;31.70;15.57;;;11.20;99.90;;;;;;5033960;28;20056;-72
2023/03/21 01:28:49;;;;;;;24.98;14.82;;;11.30;99.90;;;;;;5033744;28;20108;-72
2023/03/21 01:31:17;;;;;;;31.33;15.75;;;11.20;99.90;;;;;;5033595;28;20552;-72
2023/03/21 01:33:43;;;;;;;28.13;15.15;;;11.20;99.90;;;;;;5032944;28;20036;-73
2023/03/21 01:36:15;;;;;;;24.55;14.88;;;11.20;99.90;;;;;;5032911;28;20052;-73
2023/03/21 01:38:41;;;;;;;23.88;14.63;;;11.20;99.90;;;;;;5033576;28;20343;-72
2023/03/21 01:41:34;;;;;;;25.58;15.02;;;11.20;99.90;;;;;;5033359;28;20034;-73
2023/03/21 01:44:00;;;;;;;25.50;15.07;;;11.20;99.90;;;;;;5033234;28;20133;-72
2023/03/21 01:46:36;;;;;;;28.52;15.43;;;11.10;99.90;;;;;;5033211;28;20376;-73
2023/03/21 01:49:11;;;;;;;24.52;14.23;;;11.20;99.90;;;;;;5033670;28;20038;-73
2023/03/21 01:51:42;;;;;;;28.25;14.85;;;11.20;99.90;;;;;;5033314;28;20036;-72
2023/03/21 01:54:13;;;;;;;24.13;14.15;;;11.20;99.90;;;;;;5032192;28;20440;-72
2023/03/21 01:56:41;;;;;;;32.20;16.60;;;11.20;99.90;;;;;;5033981;28;20360;-73
2023/03/21 01:59:20;;;;;;;24.58;14.90;;;11.20;99.90;;;;;;5033210;28;20033;-73
2023/03/21 02:01:47;;;;;;;26.17;14.82;;;11.10;99.90;;;;;;5033269;28;20104;-73
2023/03/21 02:04:13;;;;;;;28.80;15.80;;;11.20;99.90;;;;;;5032080;28;20044;-73
2023/03/21 02:07:04;;;;;;;21.58;14.20;;;11.30;99.90;;;;;;5032998;28;20029;-73
2023/03/21 02:09:34;;;;;;;31.48;14.65;;;11.20;99.90;;;;;;5030190;28;20033;-73
2023/03/21 02:12:00;;;;;;;28.67;14.52;;;11.20;99.90;;;;;;5033322;28;20026;-73
2023/03/21 02:14:29;;;;;;;32.13;15.10;;;11.20;99.90;;;;;;5031790;28;20055;-74
2023/03/21 02:17:14;;;;;;;23.02;13.95;;;11.20;99.90;;;;;;5031731;28;20426;-73
2023/03/21 02:20:07;;;;;;;24.35;14.32;;;11.20;99.90;;;;;;5031708;28;20045;-72
2023/03/21 02:22:57;;;;;;;22.98;13.77;;;11.20;99.90;;;;;;5032834;28;20033;-71
2023/03/21 02:25:37;;;;;;;23.35;14.50;;;11.20;99.90;;;;;;5032768;28;20045;-73
2023/03/21 02:28:21;;;;;;;30.90;13.90;;;11.20;99.90;;;;;;5032858;28;20037;-72
2023/03/21 02:30:55;;;;;;;20.52;13.25;;;11.20;99.90;;;;;;5032477;28;20476;-71
2023/03/21 02:33:36;;;;;;;27.83;13.95;;;11.20;99.90;;;;;;5032390;28;20400;-71
2023/03/21 02:36:27;;;;;;;25.08;14.20;;;11.20;99.90;;;;;;5022814;28;20351;-71
2023/03/21 02:39:02;;;;;;;25.85;14.75;;;11.20;99.90;;;;;;5012713;28;20041;-71
2023/03/21 02:41:39;;;;;;;23.80;14.90;;;11.20;99.90;;;;;;5011548;28;20372;-72
2023/03/21 02:44:16;;;;;;;26.05;14.25;;;11.20;99.90;;;;;;5012501;28;20021;-71
2023/03/21 02:46:58;;;;;;;23.58;13.45;;;11.30;99.90;;;;;;5012755;28;20053;-73
2023/03/21 02:49:31;;;;;;;22.52;13.90;;;11.30;99.90;;;;;;5011408;28;20026;-73
2023/03/21 02:51:58;;;;;;;22.45;14.18;;;11.20;99.90;;;;;;5011497;28;20041;-73
2023/03/21 02:54:26;;;;;;;25.85;13.57;;;11.30;99.90;;;;;;5012464;28;20030;-74
2023/03/21 02:56:54;;;;;;;24.35;14.85;;;11.30;99.90;;;;;;5011887;28;20034;-73
2023/03/21 02:59:22;;;;;;;22.25;13.25;;;11.30;99.90;;;;;;5012685;28;20112;-73
2023/03/21 03:01:51;;;;;;;24.05;13.85;;;11.30;99.90;;;;;;5012384;28;20049;-73
2023/03/21 03:04:26;;;;;;;23.67;13.90;;;11.30;99.90;;;;;;5012212;28;20049;-74
2023/03/21 03:06:57;;;;;;;21.67;13.73;;;11.30;99.90;;;;;;5012297;28;20093;-74
2023/03/21 03:09:53;;;;;;;22.77;14.07;;;11.30;99.90;;;;;;5012015;28;20026;-73
2023/03/21 03:12:42;;;;;;;24.27;13.13;;;11.30;99.90;;;;;;5011051;28;20452;-73
2023/03/21 03:15:27;;;;;;;22.27;13.05;;;11.40;99.90;;;;;;5012302;28;20053;-72
2023/03/21 03:18:14;;;;;;;25.33;13.85;;;11.30;99.90;;;;;;5012488;28;20080;-74
2023/03/21 03:20:51;;;;;;;25.05;13.15;;;11.30;99.90;;;;;;5012056;28;20045;-73
2023/03/21 03:23:20;;;;;;;21.33;12.90;;;11.30;99.90;;;;;;5011109;28;20030;-73
2023/03/21 03:26:01;;;;;;;21.65;12.90;;;11.40;99.90;;;;;;5012124;28;20061;-73
2023/03/21 03:28:34;;;;;;;21.02;12.23;;;11.30;99.90;;;;;;5011711;28;20456;-72
2023/03/21 03:31:00;;;;;;;21.42;12.55;;;11.30;99.90;;;;;;5012046;28;20054;-72
2023/03/21 03:33:28;;;;;;;27.65;12.80;;;11.30;99.90;;;;;;5011653;28;20426;-73
2023/03/21 03:35:55;;;;;;;21.92;13.25;;;11.30;99.90;;;;;;5011988;28;20022;-73
2023/03/21 03:38:23;;;;;;;24.48;13.35;;;11.40;99.90;;;;;;5010636;28;20559;-72
2023/03/21 03:40:54;;;;;;;22.27;13.55;;;11.30;99.90;;;;;;5010562;28;20547;-73
2023/03/21 03:43:28;;;;;;;22.85;13.25;;;11.30;99.90;;;;;;5010799;28;20029;-71
2023/03/21 03:46:01;;;;;;;20.75;12.85;;;11.40;99.90;;;;;;5010629;28;20042;-73
2023/03/21 03:48:35;;;;;;;25.20;14.05;;;11.30;99.90;;;;;;5011608;28;20529;-71
2023/03/21 03:51:09;;;;;;;20.80;12.65;;;11.30;99.90;;;;;;5011008;28;20049;-72
2023/03/21 03:53:46;;;;;;;20.42;12.57;;;11.30;99.90;;;;;;5010541;28;20029;-73
2023/03/21 03:56:13;;;;;;;24.45;12.38;;;11.30;99.90;;;;;;5010585;28;20034;-72
2023/03/21 03:58:39;;;;;;;23.27;12.75;;;11.30;99.90;;;;;;5011499;28;20116;-73
2023/03/21 04:01:08;;;;;;;23.33;12.13;;;11.30;99.90;;;;;;5010250;28;20057;-72
2023/03/21 04:03:37;;;;;;;20.45;11.82;;;11.30;99.90;;;;;;5010059;28;20056;-71
2023/03/21 04:06:03;;;;;;;22.17;12.82;;;11.40;99.90;;;;;;5010576;28;20072;-72
2023/03/21 04:08:29;;;;;;;20.33;12.35;;;11.40;99.90;;;;;;5011162;28;20061;-73
2023/03/21 04:10:55;;;;;;;19.75;12.32;;;11.40;99.90;;;;;;5010050;28;20117;-72
2023/03/21 04:13:22;;;;;;;22.38;12.00;;;11.40;99.90;;;;;;5010239;28;20056;-73
2023/03/21 04:15:48;;;;;;;21.20;13.13;;;11.40;99.90;;;;;;5011407;28;20372;-73
2023/03/21 04:18:13;;;;;;;20.38;12.75;;;11.40;99.90;;;;;;5012316;28;20014;-73
2023/03/21 04:20:40;;;;;;;22.58;11.85;;;11.40;99.90;;;;;;5015919;28;20025;-73
2023/03/21 04:23:06;;;;;;;20.15;12.05;;;11.30;99.90;;;;;;5012949;28;20042;-73
2023/03/21 04:25:34;;;;;;;21.38;12.30;;;11.40;99.90;;;;;;5013414;28;20037;-74
2023/03/21 04:27:59;;;;;;;18.52;11.52;;;11.40;99.90;;;;;;5013569;28;20041;-72
2023/03/21 04:30:25;;;;;;;20.25;11.88;;;11.40;99.90;;;;;;5012304;28;20037;-71
2023/03/21 04:32:55;;;;;;;23.10;11.25;;;11.40;99.90;;;;;;5013049;28;20038;-71
2023/03/21 04:35:22;;;;;;;21.45;11.35;;;11.50;99.90;;;;;;5011339;28;20030;-72
2023/03/21 04:37:48;;;;;;;17.48;11.65;;;11.40;99.90;;;;;;5012167;28;20030;-73
2023/03/21 04:40:16;;;;;;;20.92;12.05;;;11.40;99.90;;;;;;5012529;28;20546;-72
2023/03/21 04:42:42;;;;;;;20.92;10.45;;;11.40;99.90;;;;;;5011953;28;20108;-73
2023/03/21 04:45:08;;;;;;;19.33;11.63;;;11.40;99.90;;;;;;5011062;28;20106;-71
2023/03/21 04:47:34;;;;;;;24.55;11.10;;;11.40;99.90;;;;;;5011103;28;20450;-72
2023/03/21 04:50:00;;;;;;;22.88;11.82;;;11.30;99.90;;;;;;5011712;28;20109;-72
2023/03/21 04:52:25;;;;;;;21.17;11.35;;;11.30;99.90;;;;;;5011387;28;20400;-72
2023/03/21 04:54:51;;;;;;;19.67;11.20;;;11.40;99.90;;;;;;5011021;28;20038;-72
2023/03/21 04:57:17;;;;;;;28.17;11.75;;;11.40;99.90;;;;;;5010832;28;20026;-72
2023/03/21 04:59:43;;;;;;;20.65;11.82;;;11.40;99.90;;;;;;5011223;28;20061;-73
2023/03/21 05:02:08;;;;;;;19.77;11.88;;;11.40;99.90;;;;;;5011338;28;20033;-74
2023/03/21 05:04:34;;;;;;;23.10;13.27;;;11.40;99.90;;;;;;5013021;28;20038;-74
2023/03/21 05:07:00;;;;;;;22.02;11.68;;;11.40;99.90;;;;;;5013942;28;20480;-72
2023/03/21 05:09:26;;;;;;;19.58;11.68;;;11.30;99.90;;;;;;5010806;28;20559;-72
2023/03/21 05:11:52;;;;;;;22.98;13.02;;;11.40;99.90;;;;;;5010667;28;20167;-73
2023/03/21 05:14:21;;;;;;;19.27;12.30;;;11.30;99.90;;;;;;5011627;28;20349;-72
2023/03/21 05:16:55;;;;;;;23.75;12.65;;;11.40;99.90;;;;;;5015163;28;20042;-72
2023/03/21 05:19:33;;;;;;;23.40;12.25;;;11.30;99.90;;;;;;5014551;28;20029;-73
2023/03/21 05:22:03;;;;;;;21.02;12.68;;;11.30;99.90;;;;;;5014697;28;20037;-72
2023/03/21 05:24:30;;;;;;;24.42;11.68;;;11.30;99.90;;;;;;5014205;28;20048;-72
2023/03/21 05:27:00;;;;;;;21.92;12.85;;;11.30;99.90;;;;;;5014360;28;20026;-72
2023/03/21 05:29:28;;;;;;;20.63;11.88;;;11.30;99.90;;;;;;5013034;28;20046;-71
2023/03/21 05:31:54;;;;;;;21.08;11.95;;;11.30;99.90;;;;;;5012908;28;20046;-72
2023/03/21 05:34:20;;;;;;;20.67;11.52;;;11.30;99.90;;;;;;5013996;28;20092;-71
2023/03/21 05:36:46;;;;;;;20.15;11.80;;;11.30;99.90;;;;;;5013632;28;20435;-72
2023/03/21 05:39:11;;;;;;;16.63;11.25;;;11.30;99.90;;;;;;5013702;28;20037;-73
2023/03/21 05:41:37;;;;;;;23.95;12.30;;;11.30;99.90;;;;;;5013263;28;20076;-73
2023/03/21 05:44:03;;;;;;;22.85;11.07;;;11.30;99.90;;;;;;5013712;28;20088;-72
2023/03/21 05:46:29;;;;;;;18.77;11.55;;;11.30;99.90;;;;;;5013978;28;20034;-73
2023/03/21 05:48:54;;;;;;;21.38;11.63;;;11.30;99.90;;;;;;5012573;28;20084;-73
2023/03/21 05:51:20;;;;;;;21.13;12.10;;;11.30;99.90;;;;;;5013683;28;20022;-73
2023/03/21 05:53:46;;;;;;;17.50;11.40;;;11.30;99.90;;;;;;5014017;28;20076;-74
2023/03/21 05:56:12;;;;;;;18.10;10.85;;;11.30;99.90;;;;;;5013488;28;20026;-74
2023/03/21 05:58:37;;;;;;;17.20;10.90;;;11.50;99.90;;;;;;5013430;28;20364;-74
2023/03/21 06:01:03;;;;;;;18.13;10.57;;;11.30;99.90;;;;;;5013593;28;20037;-73
2023/03/21 06:03:29;;;;;;;27.90;12.65;;;11.30;99.90;;;;;;5013576;28;20156;-72
2023/03/21 06:05:54;;;;;;;23.95;11.77;;;11.40;99.90;;;;;;5014051;28;20030;-74
2023/03/21 06:08:20;;;;;;;19.35;11.85;;;11.20;99.90;;;;;;5013219;28;20046;-73
2023/03/21 06:10:46;;;;;;;24.60;12.30;;;11.40;99.90;;;;;;5013342;28;20132;-73
2023/03/21 06:13:11;;;;;;;21.40;12.57;;;11.30;99.90;;;;;;5013146;28;20045;-72
2023/03/21 06:15:38;;;;;;;20.40;11.38;;;11.30;99.90;;;;;;5012929;28;20121;-73
2023/03/21 06:18:03;;;;;;;22.38;11.93;;;11.40;99.90;;;;;;5012400;28;20026;-71
2023/03/21 06:20:29;;;;;;;28.70;12.75;;;11.40;99.90;;;;;;5011912;28;20121;-72
2023/03/21 06:22:55;;;;;;;21.65;12.52;;;11.50;99.90;;;;;;5012863;28;20487;-72
2023/03/21 06:25:20;;;;;;;27.35;13.50;;;11.40;99.90;;;;;;5012809;28;20057;-72
2023/03/21 06:27:46;;;;;;;22.30;12.10;;;11.50;99.90;;;;;;5012911;28;20050;-73
2023/03/21 06:30:12;;;;;;;22.20;12.90;;;11.40;99.90;;;;;;5011971;28;20516;-73
2023/03/21 06:32:38;;;;;;;24.10;13.23;;;11.40;99.90;;;;;;5012858;28;20065;-74
2023/03/21 06:35:04;;;;;;;28.67;14.23;;;11.50;99.90;;;;;;5012240;28;20030;-74
2023/03/21 06:37:30;;;;;;;28.80;13.98;;;11.50;99.90;;;;;;5013063;28;20046;-73
2023/03/21 06:39:55;;;;;;;29.38;14.23;;;11.50;99.90;;;;;;5013042;28;20049;-73
2023/03/21 06:42:21;;;;;;;23.80;14.32;;;11.60;99.90;;;;;;5012987;28;20436;-73
2023/03/21 06:44:47;;;;;;;32.38;14.30;;;11.50;99.90;;;;;;5012767;28;20029;-74
2023/03/21 06:47:12;;;;;;;30.42;13.85;;;11.50;99.90;;;;;;5012406;28;20364;-74
2023/03/21 06:49:39;;;;;;;32.17;15.00;;;11.50;99.90;;;;;;5012302;28;20114;-73
2023/03/21 06:52:05;;;;;;;26.38;14.93;;;11.50;99.90;;;;;;5012694;28;20030;-74
2023/03/21 06:54:31;;;;;;;34.45;15.10;;;11.50;99.90;;;;;;5012449;28;20041;-72
2023/03/21 06:56:56;;;;;;;35.83;15.15;;;11.50;99.90;;;;;;5011986;28;20040;-73
2023/03/21 06:59:22;;;;;;;35.22;16.00;;;11.50;99.90;;;;;;5011267;28;20030;-73
2023/03/21 07:01:48;;;;;;;30.90;14.90;;;11.50;99.90;;;;;;5011262;28;20036;-70
2023/03/21 07:04:13;;;;;;;34.55;15.98;;;11.60;99.90;;;;;;5012091;28;20053;-71
2023/03/21 07:06:39;;;;;;;37.75;16.55;;;11.60;99.90;;;;;;5011019;28;20401;-71
2023/03/21 07:09:05;;;;;;;41.60;15.98;;;11.60;99.90;;;;;;5011479;28;20030;-71
2023/03/21 07:11:31;;;;;;;31.58;15.48;;;11.60;99.90;;;;;;5011900;28;20036;-70
2023/03/21 07:13:57;;;;;;;34.17;16.17;;;11.60;99.90;;;;;;5011575;28;20050;-70
2023/03/21 07:16:23;;;;;;;32.60;14.05;;;11.70;99.90;;;;;;5011868;28;20069;-70
2023/03/21 07:18:49;;;;;;;39.45;15.15;;;11.60;99.90;;;;;;5011694;28;20034;-71
2023/03/21 07:21:15;;;;;;;37.22;15.77;;;11.70;99.90;;;;;;5011564;28;20088;-71
2023/03/21 07:23:41;;;;;;;34.40;15.63;;;11.80;99.90;;;;;;5011072;28;20032;-71
2023/03/21 07:26:07;;;;;;;34.53;14.93;;;11.70;99.90;;;;;;5011458;28;20042;-70
2023/03/21 07:28:33;;;;;;;32.42;14.30;;;11.80;99.90;;;;;;5025157;28;20033;-71
2023/03/21 07:31:03;;;;;;;23.67;13.95;;;11.80;99.90;;;;;;5031525;28;20054;-71
2023/03/21 07:33:29;;;;;;;31.92;14.80;;;11.80;99.90;;;;;;5031685;28;20037;-71
2023/03/21 07:35:56;;;;;;;28.40;14.48;;;11.90;99.90;;;;;;5031534;28;20101;-70
2023/03/21 07:38:22;;;;;;;38.17;15.45;;;11.90;99.90;;;;;;5031281;28;20464;-70
2023/03/21 07:40:49;;;;;;;36.30;14.93;;;12.00;99.90;;;;;;5031016;28;20045;-70
2023/03/21 07:43:15;;;;;;;31.00;14.90;;;12.10;99.90;;;;;;5031271;28;20025;-71
2023/03/21 07:45:41;;;;;;;30.73;15.00;;;12.00;99.90;;;;;;5030982;28;20111;-71
2023/03/21 07:48:08;;;;;;;28.42;14.57;;;12.00;99.90;;;;;;5032757;28;20033;-70
2023/03/21 07:50:34;;;;;;;33.83;14.20;;;12.10;99.90;;;;;;5031115;28;20037;-71
2023/03/21 07:53:00;;;;;;;29.08;13.90;;;12.10;99.90;;;;;;5031742;28;20045;-69
2023/03/21 07:55:27;;;;;;;34.60;15.98;;;12.20;99.90;;;;;;5031233;28;20038;-71
2023/03/21 07:57:53;;;;;;;28.90;13.48;;;12.20;99.90;;;;;;5031046;28;20095;-70
2023/03/21 08:00:22;;;;;;;29.30;13.25;;;12.30;99.90;;;;;;5031086;28;20029;-70
2023/03/21 08:02:55;;;;;;;30.17;13.20;;;12.30;99.90;;;;;;5031405;28;20025;-71
2023/03/21 08:05:22;;;;;;;42.58;15.38;;;12.30;99.90;;;;;;5030909;28;20059;-71
2023/03/21 08:07:49;;;;;;;35.75;15.23;;;12.40;99.90;;;;;;5030935;28;20049;-71
2023/03/21 08:10:16;;;;;;;30.08;14.00;;;12.40;99.90;;;;;;5030749;28;20030;-71
2023/03/21 08:12:41;;;;;;;31.95;13.25;;;12.40;99.90;;;;;;5030848;28;20119;-71
2023/03/21 08:15:08;;;;;;;26.20;12.90;;;12.40;99.90;;;;;;5031525;28;20048;-71
2023/03/21 08:17:36;;;;;;;30.70;13.23;;;12.50;99.90;;;;;;5031291;28;20051;-71
2023/03/21 08:20:07;;;;;;;33.63;14.40;;;12.40;99.90;;;;;;5031211;28;20025;-70
2023/03/21 08:22:34;;;;;;;31.13;14.02;;;12.40;99.90;;;;;;5031004;28;20033;-70
2023/03/21 08:25:01;;;;;;;34.03;14.35;;;12.40;99.90;;;;;;5029656;28;20456;-71
2023/03/21 08:27:26;;;;;;;28.50;12.60;;;12.40;99.90;;;;;;5031844;28;20112;-70
2023/03/21 08:29:52;;;;;;;30.85;12.82;;;12.50;99.90;;;;;;5031635;28;20100;-71
2023/03/21 08:32:18;;;;;;;34.75;14.20;;;12.60;99.90;;;;;;5031063;28;20390;-70
2023/03/21 08:34:44;;;;;;;29.77;12.50;;;12.50;99.90;;;;;;5031135;28;20056;-69
2023/03/21 08:37:10;;;;;;;27.92;12.77;;;12.40;99.90;;;;;;5029544;28;20127;-70
2023/03/21 08:39:35;;;;;;;33.67;12.88;;;12.50;99.90;;;;;;5030400;28;20499;-70
2023/03/21 08:42:01;;;;;;;30.05;13.30;;;12.50;99.90;;;;;;5031000;28;20121;-71
2023/03/21 08:44:27;;;;;;;30.13;13.27;;;12.50;99.90;;;;;;5029451;28;20040;-71
2023/03/21 08:46:53;;;;;;;34.30;13.90;;;12.40;99.90;;;;;;5029517;28;20037;-70
2023/03/21 08:49:18;;;;;;;26.08;12.52;;;12.30;99.90;;;;;;5032135;28;20036;-71
2023/03/21 08:51:47;;;;;;;30.58;13.48;;;12.40;99.90;;;;;;5034587;28;20113;-70
2023/03/21 08:54:19;;;;;;;30.05;13.48;;;12.30;99.90;;;;;;5033392;28;20032;-70
2023/03/21 08:56:45;;;;;;;34.25;14.15;;;12.40;99.90;;;;;;5033815;28;20264;-71
2023/03/21 08:59:11;;;;;;;31.13;13.27;;;12.40;99.90;;;;;;5034326;28;20033;-71
2023/03/21 09:01:36;;;;;;;30.15;13.95;;;12.30;99.90;;;;;;5034200;28;20037;-71
2023/03/21 09:04:03;;;;;;;24.23;12.18;;;12.40;99.90;;;;;;5033093;28;20061;-69
2023/03/21 09:06:28;;;;;;;27.77;12.57;;;12.50;99.90;;;;;;5034172;28;20430;-70
2023/03/21 09:08:55;;;;;;;30.52;12.75;;;12.50;99.90;;;;;;5034389;28;20051;-70
2023/03/21 09:11:21;;;;;;;38.95;14.70;;;12.60;99.90;;;;;;5034222;28;20467;-71
2023/03/21 09:13:47;;;;;;;35.50;12.77;;;12.60;99.90;;;;;;5034143;28;20045;-71
2023/03/21 09:16:13;;;;;;;27.65;12.25;;;12.60;99.90;;;;;;5032921;28;20119;-70
2023/03/21 09:18:45;;;;;;;24.70;12.27;;;12.50;99.90;;;;;;5033901;28;20044;-71
2023/03/21 09:21:13;;;;;;;29.67;11.88;;;12.50;99.90;;;;;;5033914;28;20435;-71
2023/03/21 09:23:43;;;;;;;31.58;14.32;;;12.60;99.90;;;;;;5034223;28;20049;-73
2023/03/21 09:26:10;;;;;;;36.55;11.95;;;12.70;99.90;;;;;;5033733;28;20052;-74
2023/03/21 09:28:39;;;;;;;29.65;12.02;;;12.70;99.90;;;;;;5032523;28;20026;-72
2023/03/21 09:31:07;;;;;;;26.15;11.50;;;12.70;99.90;;;;;;5033308;28;20150;-71
2023/03/21 09:33:34;;;;;;;27.65;12.70;;;12.80;99.90;;;;;;5033585;28;20128;-73
2023/03/21 09:36:00;;;;;;;28.83;11.23;;;12.90;99.90;;;;;;5034006;28;20451;-72
2023/03/21 09:38:29;;;;;;;29.02;11.88;;;12.90;99.90;;;;;;5033743;28;20033;-72
2023/03/21 09:41:29;;;;;;;28.73;11.30;;;13.00;99.90;;;;;;5033688;28;20417;-72
2023/03/21 09:44:01;;;;;;;25.23;11.73;;;13.00;99.90;;;;;;5033567;28;20448;-71
2023/03/21 09:46:42;;;;;;;26.17;11.55;;;13.10;99.90;;;;;;5032386;28;20463;-73
2023/03/21 09:49:30;;;;;;;30.10;11.60;;;13.10;99.90;;;;;;5033695;28;20139;-71
2023/03/21 09:52:02;;;;;;;24.70;11.40;;;13.10;99.90;;;;;;5033387;28;20103;-71
2023/03/21 09:54:34;;;;;;;29.20;11.65;;;13.20;99.90;;;;;;5033930;28;20042;-71
2023/03/21 09:57:28;;;;;;;30.85;11.77;;;13.20;99.90;;;;;;5033824;28;20025;-73
2023/03/21 09:59:56;;;;;;;28.00;11.82;;;13.20;99.90;;;;;;5031947;28;20116;-73
2023/03/21 10:02:40;;;;;;;27.05;11.20;;;13.20;99.90;;;;;;5033226;28;20025;-72
2023/03/21 10:05:29;;;;;;;30.80;11.40;;;13.20;99.90;;;;;;5033374;28;20037;-72
2023/03/21 10:08:26;;;;;;;24.52;11.65;;;13.20;99.90;;;;;;5033044;28;20028;-72
2023/03/21 10:11:01;;;;;;;22.65;10.57;;;13.20;99.90;;;;;;5031949;28;20034;-72
2023/03/21 10:13:38;;;;;;;27.50;11.02;;;13.20;99.90;;;;;;5032748;28;20037;-72
2023/03/21 10:16:24;;;;;;;25.25;10.70;;;13.30;99.90;;;;;;5033143;28;20029;-71
2023/03/21 10:18:50;;;;;;;31.50;10.95;;;13.40;99.90;;;;;;5032787;28;20029;-71
2023/03/21 10:21:25;;;;;;;30.73;13.48;;;13.30;99.90;;;;;;5032752;28;20108;-71
2023/03/21 10:23:53;;;;;;;28.38;11.80;;;13.30;99.90;;;;;;5033217;28;20021;-72
2023/03/21 10:26:23;;;;;;;29.92;11.20;;;13.30;99.90;;;;;;5031956;28;20121;-72
2023/03/21 10:28:49;;;;;;;28.38;12.65;;;13.30;99.90;;;;;;5033033;28;20467;-72
2023/03/21 10:31:18;;;;;;;30.85;11.90;;;13.40;99.90;;;;;;5032690;28;20077;-72
2023/03/21 10:33:46;;;;;;;31.15;12.85;;;13.50;99.90;;;;;;5032530;28;20029;-71
2023/03/21 10:36:26;;;;;;;26.67;11.68;;;13.50;99.90;;;;;;5032466;28;20052;-72
2023/03/21 10:39:12;;;;;;;26.30;12.18;;;13.50;99.90;;;;;;5032110;28;20086;-72
2023/03/21 10:41:39;;;;;;;32.85;11.38;;;13.60;99.90;;;;;;5032772;28;20081;-73
2023/03/21 10:44:06;;;;;;;32.45;12.27;;;13.60;99.90;;;;;;5031028;28;20041;-72
2023/03/21 10:46:32;;;;;;;36.33;12.43;;;13.70;99.90;;;;;;5032334;28;20037;-72
2023/03/21 10:48:58;;;;;;;25.40;11.38;;;13.80;99.90;;;;;;5032143;28;20073;-72
2023/03/21 10:51:31;;;;;;;32.40;12.48;;;13.80;99.90;;;;;;5032599;28;20053;-71
2023/03/21 10:53:59;;;;;;;30.52;12.18;;;13.80;99.90;;;;;;5031968;28;20470;-71
2023/03/21 10:56:29;;;;;;;21.98;9.85;;;13.80;99.90;;;;;;5031064;28;20099;-72
2023/03/21 10:58:58;;;;;;;26.48;10.32;;;13.70;99.90;;;;;;5032289;28;20030;-72
2023/03/21 11:01:40;;;;;;;22.38;10.20;;;13.60;99.90;;;;;;5032096;28;20029;-71
2023/03/21 11:04:11;;;;;;;19.70;10.25;;;13.50;99.90;;;;;;5032189;28;20037;-72
2023/03/21 11:06:40;;;;;;;23.05;10.00;;;13.60;99.90;;;;;;5032183;28;20072;-72
2023/03/21 11:09:14;;;;;;;22.20;10.00;;;13.60;99.90;;;;;;5031561;28;20029;-72
2023/03/21 11:11:53;;;;;;;22.35;10.27;;;13.60;99.90;;;;;;5031271;28;20052;-70
2023/03/21 11:14:32;;;;;;;22.77;9.93;;;13.70;99.90;;;;;;5031835;28;20030;-71
2023/03/21 11:16:58;;;;;;;21.58;9.25;;;13.80;99.90;;;;;;5031705;28;20136;-72
2023/03/21 11:19:32;;;;;;;24.85;10.57;;;13.80;99.90;;;;;;5031615;28;20033;-72
2023/03/21 11:22:04;;;;;;;21.60;9.48;;;13.70;99.90;;;;;;5031737;28;20041;-70
2023/03/21 11:24:31;;;;;;;25.83;9.00;;;13.60;99.90;;;;;;5031810;28;20463;-71
2023/03/21 11:26:57;;;;;;;24.98;9.82;;;13.50;99.90;;;;;;5031035;28;20059;-70
2023/03/21 11:29:38;;;;;;;26.63;10.30;;;13.50;99.90;;;;;;5031830;28;20036;-71
2023/03/21 11:32:18;;;;;;;20.05;9.63;;;13.50;99.90;;;;;;5031389;28;20388;-71
2023/03/21 11:35:01;;;;;;;20.13;8.07;;;13.50;99.90;;;;;;5030531;28;20438;-71
2023/03/21 11:37:32;;;;;;;23.38;8.90;;;13.50;99.90;;;;;;5030350;28;20065;-71
2023/03/21 11:40:18;;;;;;;22.98;8.40;;;13.60;99.90;;;;;;5031358;28;20040;-70
2023/03/21 11:42:48;;;;;;;20.25;7.45;;;13.50;99.90;;;;;;5031704;28;20033;-72
2023/03/21 11:45:18;;;;;;;20.75;8.25;;;13.40;99.90;;;;;;5031009;28;20447;-68
2023/03/21 11:47:45;;;;;;;24.58;9.32;;;13.30;99.90;;;;;;5031433;28;20029;-69
2023/03/21 11:50:15;;;;;;;21.38;10.35;;;13.40;99.90;;;;;;5031172;28;20561;-68
2023/03/21 11:52:51;;;;;;;19.92;9.15;;;13.20;99.90;;;;;;5031217;28;20095;-69
2023/03/21 11:55:40;;;;;;;19.25;8.85;;;13.20;99.90;;;;;;5031167;28;20116;-68
2023/03/21 11:58:22;;;;;;;23.42;10.20;;;13.30;99.90;;;;;;5031109;28;20404;-69
2023/03/21 12:00:58;;;;;;;22.13;8.02;;;13.20;99.90;;;;;;5029786;28;20030;-70
2023/03/21 12:04:11;;;;;;;23.83;9.07;;;13.30;99.90;;;;;;5030852;28;20025;-70
2023/03/21 12:06:44;;;;;;;20.55;9.85;;;13.30;99.90;;;;;;5028631;28;20044;-69
2023/03/21 12:09:15;;;;;;;24.92;9.88;;;13.20;99.90;;;;;;5030562;28;20448;-70
2023/03/21 12:11:55;;;;;;;23.08;9.20;;;13.30;99.90;;;;;;5031179;28;20364;-70
2023/03/21 12:14:27;;;;;;;21.35;9.95;;;13.10;99.90;;;;;;5030626;28;20025;-69
2023/03/21 12:16:53;;;;;;;24.45;8.98;;;13.20;99.90;;;;;;5029588;28;20344;-70
2023/03/21 12:19:56;;;;;;;21.75;8.85;;;13.20;99.90;;;;;;5030829;28;20040;-70
2023/03/21 12:23:00;;;;;;;23.08;9.75;;;13.30;99.90;;;;;;5030794;28;20091;-69
2023/03/21 12:25:37;;;;;;;23.33;9.75;;;13.30;99.90;;;;;;5022064;28;20469;-69
2023/03/21 12:28:46;;;;;;;20.63;9.70;;;13.20;99.90;;;;;;5029411;28;20091;-70
2023/03/21 12:31:20;;;;;;;19.63;9.73;;;13.20;99.90;;;;;;5027076;28;20108;-69
2023/03/21 12:33:48;;;;;;;22.13;9.10;;;13.30;99.90;;;;;;5029331;28;20109;-70
2023/03/21 12:36:53;;;;;;;21.27;10.25;;;13.40;99.90;;;;;;5030235;28;20045;-69
2023/03/21 12:39:29;;;;;;;23.20;9.70;;;13.30;99.90;;;;;;5030365;28;20041;-70
2023/03/21 12:42:03;;;;;;;22.58;9.10;;;13.30;99.90;;;;;;5030747;28;20025;-70
2023/03/21 12:44:36;;;;;;;23.95;10.00;;;13.20;99.90;;;;;;5029480;28;20048;-69